Wingate, Texas
Current Conditions -  °F | °C
As of 9:58 PM on Saturday 20 Dec 2014 (Local Time) from KDYS Reporting Station
Overcast Overcast  
Wind Chill: 41°   Ceiling: 3100
Heat Index: 46°   Visibility: 10mi
Dew Point: 39°   Wind: 12mph
Humidity: 74%   Direction: 170°S
Pressure: 30.11"   Gusts: NA
Location:  32.04°N, 100.11°W
Report Text: KDYS 210358Z AUTO 17010KT 10SM OVC031 08/04 A3011 RMK AO2 SLP194 T00800037 $
Loading
Personal Weather Stations






























Interactive Weather Map New forecast layout! Learn more

10-Day Weather Forecast

Advertisements
Track Severe Weather on mobile